createdAt,value
2023-02-11T00:01:29.834Z,-1.97
2023-02-11T00:03:59.341Z,-1.86
2023-02-11T00:06:28.348Z,-1.83
2023-02-11T00:08:56.926Z,-2.07
2023-02-11T00:11:30.763Z,-1.88
2023-02-11T00:13:59.848Z,-1.87
2023-02-11T00:16:29.631Z,-1.98
2023-02-11T00:18:57.807Z,-1.91
2023-02-11T00:21:27.197Z,-1.93
2023-02-11T00:23:57.107Z,-2.04
2023-02-11T00:26:26.939Z,-1.97
2023-02-11T00:28:55.490Z,-2.04
2023-02-11T00:31:24.553Z,-1.95
2023-02-11T00:33:54.244Z,-2.10
2023-02-11T00:36:24.908Z,-2.11
2023-02-11T00:38:53.726Z,-2.18
2023-02-11T00:41:22.558Z,-2.26
2023-02-11T00:43:51.178Z,-2.30
2023-02-11T00:46:19.040Z,-2.27
2023-02-11T00:48:46.838Z,-2.29
2023-02-11T00:51:16.321Z,-2.14
2023-02-11T00:53:44.520Z,-2.04
2023-02-11T00:56:12.408Z,-2.18
2023-02-11T00:58:40.236Z,-2.18
2023-02-11T01:01:08.221Z,-2.23
2023-02-11T01:03:36.199Z,-2.45
2023-02-11T01:06:06.862Z,-2.42
2023-02-11T01:08:37.578Z,-2.30
2023-02-11T01:11:09.366Z,-2.27
2023-02-11T01:13:38.234Z,-2.34
2023-02-11T01:16:08.848Z,-2.34
2023-02-11T01:18:37.300Z,-2.46
2023-02-11T01:21:05.490Z,-2.38
2023-02-11T01:23:33.295Z,-2.37
2023-02-11T01:26:02.837Z,-2.31
2023-02-11T01:28:32.311Z,-2.31
2023-02-11T01:31:01.066Z,-2.35
2023-02-11T01:33:29.090Z,-2.45
2023-02-11T01:35:56.842Z,-2.42
2023-02-11T01:38:27.050Z,-2.41
2023-02-11T01:40:57.434Z,-2.39
2023-02-11T01:43:28.740Z,-2.56
2023-02-11T01:46:17.152Z,-2.44
2023-02-11T01:48:48.645Z,-2.52
2023-02-11T01:51:21.641Z,-2.50
2023-02-11T01:54:08.371Z,-2.50
2023-02-11T01:56:56.325Z,-2.39
2023-02-11T01:59:32.957Z,-2.15
2023-02-11T02:02:06.229Z,-2.18
2023-02-11T02:04:43.284Z,-1.99
2023-02-11T02:07:15.399Z,-2.00
2023-02-11T02:09:50.195Z,-2.71
2023-02-11T02:12:17.932Z,-2.46
2023-02-11T02:14:47.112Z,-2.59
2023-02-11T02:17:26.098Z,-2.61
2023-02-11T02:20:22.675Z,-2.63
2023-02-11T02:23:14.985Z,-2.59
2023-02-11T02:26:05.754Z,-2.81
2023-02-11T02:28:58.641Z,-2.70
2023-02-11T02:31:44.476Z,-2.71
2023-02-11T02:34:18.183Z,-2.75
2023-02-11T02:36:57.183Z,-2.71
2023-02-11T02:39:32.476Z,-2.65
2023-02-11T02:42:00.867Z,-2.74
2023-02-11T02:44:29.578Z,-2.77
2023-02-11T02:46:57.816Z,-2.72
2023-02-11T02:49:27.041Z,-2.75
2023-02-11T02:52:27.011Z,-2.84
2023-02-11T02:55:10.008Z,-2.76
2023-02-11T02:57:48.081Z,-2.86
2023-02-11T03:00:25.080Z,-3.04
2023-02-11T03:03:02.827Z,-3.06
2023-02-11T03:05:40.863Z,-3.03
2023-02-11T03:08:13.340Z,-2.97
2023-02-11T03:10:45.141Z,-2.98
2023-02-11T03:13:16.965Z,-2.88
2023-02-11T03:15:45.407Z,-2.95
2023-02-11T03:18:17.632Z,-2.98
2023-02-11T03:20:51.548Z,-2.90
2023-02-11T03:23:24.834Z,-3.01
2023-02-11T03:25:59.777Z,-3.22
2023-02-11T03:28:31.944Z,-3.06
2023-02-11T03:31:16.740Z,-3.03
2023-02-11T03:33:52.127Z,-2.95
2023-02-11T03:36:28.303Z,-3.05
2023-02-11T03:38:59.638Z,-3.06
2023-02-11T03:41:27.720Z,-2.93
2023-02-11T03:43:57.938Z,-2.88
2023-02-11T03:46:31.235Z,-2.84
2023-02-11T03:49:04.533Z,-2.81
2023-02-11T03:51:35.278Z,-2.97
2023-02-11T03:54:05.844Z,-3.03
2023-02-11T03:56:41.280Z,-3.06
2023-02-11T03:59:09.474Z,-3.03
2023-02-11T04:01:37.210Z,-3.10
2023-02-11T04:04:05.485Z,-3.10
2023-02-11T04:06:34.632Z,-3.04
2023-02-11T04:09:02.765Z,-3.04
2023-02-11T04:11:30.616Z,-2.99
2023-02-11T04:13:58.392Z,-2.92
2023-02-11T04:16:26.198Z,-3.01
2023-02-11T04:18:54.060Z,-3.02
2023-02-11T04:21:21.786Z,-3.08
2023-02-11T04:23:50.908Z,-3.13
2023-02-11T04:26:18.718Z,-3.08
2023-02-11T04:28:46.417Z,-3.07
2023-02-11T04:31:14.197Z,-3.06
2023-02-11T04:33:42.058Z,-2.97
2023-02-11T04:36:09.908Z,-2.95
2023-02-11T04:38:37.781Z,-3.04
2023-02-11T04:41:07.284Z,-3.06
2023-02-11T04:43:38.926Z,-2.96
2023-02-11T04:46:06.989Z,-2.79
2023-02-11T04:48:34.898Z,-2.80
2023-02-11T04:51:03.162Z,-3.03
2023-02-11T04:53:30.872Z,-2.96
2023-02-11T04:55:58.677Z,-2.98
2023-02-11T04:58:27.892Z,-3.00
2023-02-11T05:00:55.939Z,-2.97
2023-02-11T05:03:23.651Z,-3.09
2023-02-11T05:05:51.743Z,-3.04
2023-02-11T05:08:20.024Z,-3.18
2023-02-11T05:10:48.688Z,-3.19
2023-02-11T05:13:16.478Z,-3.18
2023-02-11T05:15:45.538Z,-3.20
2023-02-11T05:18:14.954Z,-3.22
2023-02-11T05:20:43.202Z,-3.25
2023-02-11T05:23:10.988Z,-3.26
2023-02-11T05:25:39.112Z,-3.32
2023-02-11T05:28:07.800Z,-3.22
2023-02-11T05:30:35.872Z,-3.20
2023-02-11T05:33:05.131Z,-3.38
2023-02-11T05:35:33.138Z,-3.14
2023-02-11T05:38:00.955Z,-3.23
2023-02-11T05:40:28.746Z,-3.30
2023-02-11T05:42:56.495Z,-3.34
2023-02-11T05:45:24.210Z,-3.22
2023-02-11T05:47:51.945Z,-3.24
2023-02-11T05:50:21.501Z,-3.13
2023-02-11T05:52:49.247Z,-3.12
2023-02-11T05:55:17.274Z,-3.15
2023-02-11T05:57:45.033Z,-3.04
2023-02-11T06:00:14.156Z,-3.14
2023-02-11T06:02:42.108Z,-3.20
2023-02-11T06:05:10.594Z,-3.28
2023-02-11T06:07:39.712Z,-3.36
2023-02-11T06:10:09.072Z,-3.44
2023-02-11T06:12:37.857Z,-3.55
2023-02-11T06:15:06.597Z,-3.56
2023-02-11T06:17:36.544Z,-3.56
2023-02-11T06:20:05.967Z,-3.60
2023-02-11T06:22:34.932Z,-3.53
2023-02-11T06:25:04.887Z,-3.61
2023-02-11T06:27:32.673Z,-3.61
2023-02-11T06:30:02.524Z,-3.48
2023-02-11T06:32:46.975Z,-3.45
2023-02-11T06:35:15.766Z,-3.51
2023-02-11T06:37:44.106Z,-3.62
2023-02-11T06:40:13.742Z,-3.54
2023-02-11T06:42:42.426Z,-3.52
2023-02-11T06:45:13.585Z,-3.53
2023-02-11T06:47:43.249Z,-3.39
2023-02-11T06:50:14.493Z,-3.26
2023-02-11T06:52:44.541Z,-3.38
2023-02-11T06:55:13.628Z,-3.32
2023-02-11T06:57:41.356Z,-3.25
2023-02-11T07:00:10.528Z,-3.32
2023-02-11T07:02:38.341Z,-3.44
2023-02-11T07:05:07.891Z,-3.29
2023-02-11T07:07:35.725Z,-3.32
2023-02-11T07:10:04.321Z,-3.42
2023-02-11T07:12:34.297Z,-3.31
2023-02-11T07:15:02.241Z,-3.24
2023-02-11T07:17:29.972Z,-2.92
2023-02-11T07:19:57.814Z,-2.75
2023-02-11T07:22:25.611Z,-2.68
2023-02-11T07:24:53.335Z,-2.51
2023-02-11T07:27:21.077Z,-2.32
2023-02-11T07:29:50.305Z,-2.16
2023-02-11T07:32:18.132Z,-1.76
2023-02-11T07:34:48.024Z,-1.76
2023-02-11T07:37:16.384Z,-1.69
2023-02-11T07:39:44.175Z,-1.83
2023-02-11T07:42:11.941Z,-1.77
2023-02-11T07:44:39.757Z,-1.76
2023-02-11T07:47:08.969Z,-1.56
2023-02-11T07:49:36.989Z,-1.38
2023-02-11T07:52:04.900Z,-0.88
2023-02-11T07:54:32.710Z,-0.39
2023-02-11T07:57:00.529Z,0.29
2023-02-11T07:59:28.490Z,0.66
2023-02-11T08:01:56.409Z,0.69
2023-02-11T08:04:25.648Z,0.99
2023-02-11T08:06:58.872Z,1.74
2023-02-11T08:09:27.235Z,2.25
2023-02-11T08:11:54.941Z,1.74
2023-02-11T08:14:22.883Z,2.46
2023-02-11T08:16:51.067Z,2.51
2023-02-11T08:19:19.209Z,2.66
2023-02-11T08:21:48.525Z,2.82
2023-02-11T08:24:16.914Z,2.23
2023-02-11T08:26:45.108Z,3.02
2023-02-11T08:29:15.100Z,2.48
2023-02-11T08:31:45.028Z,2.72
2023-02-11T08:34:18.162Z,2.75
2023-02-11T08:36:48.554Z,1.39
2023-02-11T08:39:20.503Z,1.59
2023-02-11T08:41:49.982Z,1.83
2023-02-11T08:44:17.913Z,2.73
2023-02-11T08:46:46.017Z,2.87
2023-02-11T08:49:13.874Z,2.88
2023-02-11T08:51:41.770Z,3.15
2023-02-11T08:54:11.156Z,2.81
2023-02-11T08:56:39.798Z,2.56
2023-02-11T08:59:09.346Z,3.33
2023-02-11T09:01:37.904Z,4.10
2023-02-11T09:04:06.623Z,3.14
2023-02-11T09:06:34.710Z,3.45
2023-02-11T09:09:02.568Z,3.60
2023-02-11T09:11:34.896Z,3.78
2023-02-11T09:14:04.110Z,3.51
2023-02-11T09:16:33.759Z,2.93
2023-02-11T09:19:03.169Z,2.73
2023-02-11T09:21:31.877Z,2.73
2023-02-11T09:23:59.853Z,2.54
2023-02-11T09:26:29.628Z,3.79
2023-02-11T09:28:59.253Z,4.97
2023-02-11T09:31:28.864Z,5.76
2023-02-11T09:34:00.084Z,5.46
2023-02-11T09:36:29.868Z,5.56
2023-02-11T09:38:59.348Z,5.43
2023-02-11T09:41:38.465Z,5.43
2023-02-11T09:44:11.775Z,5.02
2023-02-11T09:46:43.608Z,4.91
2023-02-11T09:49:20.986Z,4.89
2023-02-11T09:51:52.595Z,4.71
2023-02-11T09:54:31.285Z,4.37
2023-02-11T09:56:59.060Z,4.70
2023-02-11T09:59:28.279Z,4.91
2023-02-11T10:02:00.252Z,4.74
2023-02-11T10:04:45.978Z,4.48
2023-02-11T10:07:25.472Z,4.68
2023-02-11T10:10:09.858Z,4.51
2023-02-11T10:12:56.172Z,3.89
2023-02-11T10:15:32.712Z,3.16
2023-02-11T10:18:19.887Z,3.79
2023-02-11T10:20:57.138Z,4.22
2023-02-11T10:23:27.603Z,4.06
2023-02-11T10:25:57.116Z,4.26
2023-02-11T10:28:30.883Z,4.16
2023-02-11T10:31:03.170Z,4.60
2023-02-11T10:33:35.555Z,4.85
2023-02-11T10:36:04.640Z,4.97
2023-02-11T10:38:33.917Z,5.37
2023-02-11T10:41:01.806Z,5.24
2023-02-11T10:43:31.833Z,5.83
2023-02-11T10:46:04.122Z,5.44
2023-02-11T10:48:42.432Z,5.74
2023-02-11T10:51:18.427Z,5.62
2023-02-11T10:53:47.130Z,5.90
2023-02-11T10:56:22.944Z,6.02
2023-02-11T10:58:59.015Z,6.04
2023-02-11T11:01:41.834Z,6.09
2023-02-11T11:04:34.928Z,5.87
2023-02-11T11:07:14.102Z,6.03
2023-02-11T11:09:48.052Z,6.00
2023-02-11T11:12:28.248Z,5.47
2023-02-11T11:14:57.304Z,6.13
2023-02-11T11:17:29.121Z,6.51
2023-02-11T11:20:16.047Z,7.46
2023-02-11T11:22:45.814Z,7.19
2023-02-11T11:25:27.872Z,6.70
2023-02-11T11:27:58.830Z,7.01
2023-02-11T11:30:32.713Z,6.83
2023-02-11T11:33:02.428Z,6.19
2023-02-11T11:35:33.006Z,6.19
2023-02-11T11:38:03.482Z,6.19
2023-02-11T11:40:32.950Z,5.90
2023-02-11T11:43:16.365Z,5.85
2023-02-11T11:45:56.668Z,6.18
2023-02-11T11:48:29.285Z,6.24
2023-02-11T11:51:01.259Z,6.33
2023-02-11T11:53:38.693Z,7.13
2023-02-11T11:56:10.294Z,7.52
2023-02-11T11:58:38.424Z,7.23
2023-02-11T12:01:20.604Z,7.92
2023-02-11T12:04:12.376Z,7.29
2023-02-11T12:06:54.192Z,6.92
2023-02-11T12:09:32.058Z,7.30
2023-02-11T12:12:19.112Z,7.29
2023-02-11T12:14:57.319Z,7.40
2023-02-11T12:17:41.400Z,8.68
2023-02-11T12:20:27.889Z,8.61
2023-02-11T12:23:07.904Z,7.91
2023-02-11T12:25:41.122Z,7.74
2023-02-11T12:28:24.449Z,7.39
2023-02-11T12:31:25.129Z,7.81
2023-02-11T12:34:08.615Z,8.25
2023-02-11T12:36:54.381Z,8.86
2023-02-11T12:39:33.990Z,9.90
2023-02-11T12:42:44.039Z,10.42
2023-02-11T12:45:22.784Z,9.94
2023-02-11T12:48:05.020Z,10.17
2023-02-11T12:50:40.290Z,11.49
2023-02-11T12:53:41.421Z,11.09
2023-02-11T12:56:22.129Z,10.57
2023-02-11T12:58:57.875Z,9.87
2023-02-11T13:01:30.643Z,10.12
2023-02-11T13:04:05.837Z,9.31
2023-02-11T13:06:38.444Z,9.35
2023-02-11T13:09:12.880Z,7.80
2023-02-11T13:11:51.673Z,7.06
2023-02-11T13:14:27.999Z,6.82
2023-02-11T13:16:58.397Z,6.74
2023-02-11T13:19:32.686Z,6.29
2023-02-11T13:22:09.505Z,6.09
2023-02-11T13:24:44.909Z,6.37
2023-02-11T13:27:29.538Z,6.21
2023-02-11T13:30:20.372Z,6.28
2023-02-11T13:33:20.056Z,6.19
2023-02-11T13:36:10.644Z,6.05
2023-02-11T13:38:39.432Z,6.11
2023-02-11T13:41:17.946Z,5.77
2023-02-11T13:43:57.596Z,5.94
2023-02-11T13:46:27.380Z,5.74
2023-02-11T13:48:57.058Z,5.45
2023-02-11T13:51:43.883Z,5.28
2023-02-11T13:54:23.628Z,5.36
2023-02-11T13:57:24.928Z,5.41
2023-02-11T13:59:57.166Z,5.40
2023-02-11T14:02:46.268Z,5.51
2023-02-11T14:05:46.683Z,5.52
2023-02-11T14:08:40.347Z,5.57
2023-02-11T14:11:26.522Z,5.48
2023-02-11T14:14:16.313Z,5.45
2023-02-11T14:17:23.879Z,5.49
2023-02-11T14:19:53.594Z,5.63
2023-02-11T14:22:26.903Z,5.27
2023-02-11T14:24:57.769Z,5.45
2023-02-11T14:27:30.506Z,5.33
2023-02-11T14:30:15.037Z,5.52
2023-02-11T14:32:55.383Z,5.59
2023-02-11T14:35:32.838Z,5.40
2023-02-11T14:38:08.472Z,5.37
2023-02-11T14:40:45.065Z,5.55
2023-02-11T14:43:17.004Z,5.65
2023-02-11T14:45:49.253Z,5.61
2023-02-11T14:48:17.821Z,5.61
2023-02-11T14:50:51.586Z,5.22
2023-02-11T14:53:22.819Z,5.28
2023-02-11T14:55:52.506Z,5.34
2023-02-11T14:58:22.467Z,5.34
2023-02-11T15:00:53.495Z,5.44
2023-02-11T15:03:29.487Z,5.58
2023-02-11T15:06:01.096Z,5.63
2023-02-11T15:08:31.770Z,5.86
2023-02-11T15:11:02.213Z,5.87
2023-02-11T15:13:33.117Z,6.09
2023-02-11T15:16:06.630Z,6.37
2023-02-11T15:18:38.503Z,6.46
2023-02-11T15:21:08.634Z,6.48
2023-02-11T15:23:37.394Z,6.60
2023-02-11T15:26:14.294Z,6.53
2023-02-11T15:28:52.046Z,6.35
2023-02-11T15:31:23.159Z,6.52
2023-02-11T15:33:51.516Z,6.53
2023-02-11T15:36:23.905Z,6.51
2023-02-11T15:39:30.397Z,6.31
2023-02-11T15:41:58.227Z,6.44
2023-02-11T15:44:30.922Z,6.51
2023-02-11T15:46:59.199Z,6.47
2023-02-11T15:49:27.537Z,6.26
2023-02-11T15:51:58.543Z,6.15
2023-02-11T15:54:29.566Z,6.07
2023-02-11T15:57:03.768Z,5.99
2023-02-11T15:59:38.261Z,5.73
2023-02-11T16:02:15.022Z,5.54
2023-02-11T16:04:51.902Z,5.29
2023-02-11T16:07:45.035Z,5.31
2023-02-11T16:10:22.906Z,5.04
2023-02-11T16:13:19.194Z,5.08
2023-02-11T16:15:52.389Z,4.95
2023-02-11T16:18:40.105Z,4.84
2023-02-11T16:21:16.847Z,4.72
2023-02-11T16:23:52.401Z,4.42
2023-02-11T16:26:28.728Z,4.32
2023-02-11T16:29:05.358Z,4.25
2023-02-11T16:31:38.885Z,4.29
2023-02-11T16:34:14.438Z,4.29
2023-02-11T16:36:42.491Z,4.24
2023-02-11T16:39:12.296Z,4.26
2023-02-11T16:41:40.287Z,4.08
2023-02-11T16:44:08.223Z,4.09
2023-02-11T16:46:37.626Z,4.04
2023-02-11T16:49:11.401Z,3.84
2023-02-11T16:51:41.322Z,3.74
2023-02-11T16:54:14.590Z,3.69
2023-02-11T16:56:42.713Z,3.51
2023-02-11T16:59:10.509Z,3.38
2023-02-11T17:01:39.907Z,3.15
2023-02-11T17:04:08.420Z,3.14
2023-02-11T17:06:36.307Z,3.00
2023-02-11T17:09:06.449Z,3.01
2023-02-11T17:11:35.552Z,3.05
2023-02-11T17:14:03.316Z,2.99
2023-02-11T17:16:31.461Z,3.07
2023-02-11T17:18:59.267Z,2.98
2023-02-11T17:21:29.745Z,2.96
2023-02-11T17:23:57.841Z,2.82
2023-02-11T17:26:26.219Z,2.76
2023-02-11T17:28:55.346Z,2.80
2023-02-11T17:31:23.286Z,2.78
2023-02-11T17:33:51.140Z,2.71
2023-02-11T17:36:19.549Z,2.74
2023-02-11T17:38:47.489Z,2.67
2023-02-11T17:41:15.224Z,2.75
2023-02-11T17:43:42.966Z,2.70
2023-02-11T17:46:13.017Z,2.63
2023-02-11T17:48:41.021Z,2.59
2023-02-11T17:51:23.562Z,2.60
2023-02-11T17:53:51.390Z,2.66
2023-02-11T17:56:19.371Z,2.69
2023-02-11T17:58:47.283Z,2.85
2023-02-11T18:01:16.608Z,2.90
2023-02-11T18:03:45.444Z,2.97
2023-02-11T18:06:13.524Z,2.84
2023-02-11T18:08:41.910Z,2.75
2023-02-11T18:11:11.159Z,2.61
2023-02-11T18:13:39.078Z,2.51
2023-02-11T18:16:08.446Z,2.41
2023-02-11T18:18:37.678Z,2.20
2023-02-11T18:21:08.535Z,2.13
2023-02-11T18:23:36.741Z,2.06
2023-02-11T18:26:08.101Z,2.04
2023-02-11T18:28:36.304Z,1.99
2023-02-11T18:31:07.653Z,1.87
2023-02-11T18:33:37.676Z,1.95
2023-02-11T18:36:07.369Z,1.79
2023-02-11T18:38:35.489Z,1.77
2023-02-11T18:41:03.659Z,1.70
2023-02-11T18:43:33.697Z,1.70
2023-02-11T18:46:02.773Z,1.68
2023-02-11T18:48:30.590Z,1.67
2023-02-11T18:50:59.753Z,1.62
2023-02-11T18:53:27.737Z,1.58
2023-02-11T18:55:55.706Z,1.54
2023-02-11T18:58:23.533Z,1.45
2023-02-11T19:00:51.876Z,1.48
2023-02-11T19:03:19.956Z,1.42
2023-02-11T19:05:49.606Z,1.41
2023-02-11T19:08:18.876Z,1.44
2023-02-11T19:10:49.428Z,1.37
2023-02-11T19:13:17.644Z,1.32
2023-02-11T19:15:47.270Z,1.25
2023-02-11T19:18:17.136Z,1.23
2023-02-11T19:20:45.904Z,1.36
2023-02-11T19:23:13.796Z,1.34
2023-02-11T19:25:48.501Z,1.30
2023-02-11T19:28:16.809Z,1.26
2023-02-11T19:30:44.786Z,1.26
2023-02-11T19:33:12.775Z,1.09
2023-02-11T19:35:40.804Z,1.16
2023-02-11T19:38:08.560Z,1.11
2023-02-11T19:40:36.330Z,1.04
2023-02-11T19:43:05.596Z,1.12
2023-02-11T19:45:33.444Z,1.04
2023-02-11T19:48:01.276Z,0.95
2023-02-11T19:50:29.097Z,0.93
2023-02-11T19:52:56.854Z,0.97
2023-02-11T19:55:24.828Z,0.87
2023-02-11T19:57:52.748Z,0.76
2023-02-11T20:00:22.559Z,0.85
2023-02-11T20:02:50.417Z,0.85
2023-02-11T20:05:18.343Z,0.84
2023-02-11T20:07:46.083Z,0.84
2023-02-11T20:10:14.229Z,0.76
2023-02-11T20:12:41.972Z,0.73
2023-02-11T20:15:10.880Z,0.77
2023-02-11T20:17:40.131Z,0.76
2023-02-11T20:20:08.859Z,0.72
2023-02-11T20:22:36.615Z,0.71
2023-02-11T20:25:04.635Z,0.72
2023-02-11T20:27:33.417Z,0.71
2023-02-11T20:30:01.191Z,0.70
2023-02-11T20:32:32.772Z,0.60
2023-02-11T20:35:02.076Z,0.75
2023-02-11T20:37:29.784Z,0.79
2023-02-11T20:39:58.847Z,0.73
2023-02-11T20:42:26.664Z,0.72
2023-02-11T20:44:54.543Z,0.83
2023-02-11T20:47:22.665Z,1.00
2023-02-11T20:49:50.852Z,0.75
2023-02-11T20:52:19.988Z,0.62
2023-02-11T20:54:47.707Z,0.55
2023-02-11T20:57:15.479Z,0.46
2023-02-11T20:59:43.276Z,0.43
2023-02-11T21:02:12.530Z,0.36
2023-02-11T21:04:40.838Z,0.38
2023-02-11T21:07:08.595Z,0.29
2023-02-11T21:09:38.239Z,0.16
2023-02-11T21:12:07.408Z,0.20
2023-02-11T21:14:35.181Z,0.21
2023-02-11T21:17:02.969Z,0.16
2023-02-11T21:19:30.699Z,0.19
2023-02-11T21:22:00.670Z,0.26
2023-02-11T21:24:28.740Z,0.24
2023-02-11T21:26:57.873Z,0.18
2023-02-11T21:29:25.717Z,0.10
2023-02-11T21:31:53.604Z,0.08
2023-02-11T21:34:21.455Z,0.09
2023-02-11T21:36:51.139Z,0.07
2023-02-11T21:39:20.170Z,0.09
2023-02-11T21:41:47.907Z,0.07
2023-02-11T21:44:17.071Z,0.10
2023-02-11T21:46:45.097Z,0.09
2023-02-11T21:49:12.948Z,0.05
2023-02-11T21:51:40.948Z,-0.01
2023-02-11T21:54:08.710Z,0.04
2023-02-11T21:56:36.641Z,-0.01
2023-02-11T21:59:04.527Z,0.06
2023-02-11T22:01:36.798Z,-0.07
2023-02-11T22:04:05.403Z,-0.02
2023-02-11T22:06:35.504Z,-0.08
2023-02-11T22:09:05.410Z,-0.17
2023-02-11T22:11:33.267Z,-0.25
2023-02-11T22:14:01.055Z,-0.23
2023-02-11T22:16:29.620Z,-0.31
2023-02-11T22:18:59.492Z,-0.34
2023-02-11T22:21:28.244Z,-0.23
2023-02-11T22:23:56.685Z,-0.39
2023-02-11T22:26:26.506Z,-0.28
2023-02-11T22:28:54.998Z,-0.23
2023-02-11T22:31:25.068Z,-0.25
2023-02-11T22:33:53.547Z,-0.23
2023-02-11T22:36:25.164Z,-0.28
2023-02-11T22:38:53.437Z,-0.28
2023-02-11T22:41:30.779Z,-0.43
2023-02-11T22:43:58.681Z,-0.43
2023-02-11T22:46:27.070Z,-0.52
2023-02-11T22:48:55.185Z,-0.62
2023-02-11T22:51:26.302Z,-0.66
2023-02-11T22:53:56.042Z,-0.76
2023-02-11T22:56:25.091Z,-0.72
2023-02-11T22:58:53.572Z,-0.69
2023-02-11T23:01:21.713Z,-0.70
2023-02-11T23:03:49.772Z,-0.78
2023-02-11T23:06:18.065Z,-0.77
2023-02-11T23:08:47.555Z,-0.72
2023-02-11T23:11:17.974Z,-0.77
2023-02-11T23:13:47.556Z,-0.74
2023-02-11T23:16:17.421Z,-0.77
2023-02-11T23:18:47.008Z,-0.83
2023-02-11T23:21:17.931Z,-0.81
2023-02-11T23:23:47.159Z,-0.85
2023-02-11T23:26:17.490Z,-0.85
2023-02-11T23:28:45.977Z,-0.83
2023-02-11T23:31:15.712Z,-0.80
2023-02-11T23:33:43.887Z,-0.86
2023-02-11T23:36:11.912Z,-0.82
2023-02-11T23:38:40.019Z,-0.86
2023-02-11T23:41:09.278Z,-0.74
2023-02-11T23:43:37.115Z,-0.61
2023-02-11T23:46:05.304Z,-0.63
2023-02-11T23:48:33.814Z,-0.63
2023-02-11T23:51:01.978Z,-0.53
2023-02-11T23:53:29.751Z,-0.53
2023-02-11T23:55:57.573Z,-0.50
2023-02-11T23:58:26.828Z,-0.45
